sensor_id;sensor_type;location;lat;lon;timestamp;P1;durP1;ratioP1;P2;durP2;ratioP2
61806;SDS011;47726;52.766;6.606;2022-08-27T00:02:12;7.30;;;3.17;;
61806;SDS011;47726;52.766;6.606;2022-08-27T00:04:39;6.00;;;2.50;;
61806;SDS011;47726;52.766;6.606;2022-08-27T00:07:06;10.95;;;3.33;;
61806;SDS011;47726;52.766;6.606;2022-08-27T00:09:32;7.13;;;3.00;;
61806;SDS011;47726;52.766;6.606;2022-08-27T00:11:58;6.60;;;2.65;;
61806;SDS011;47726;52.766;6.606;2022-08-27T00:14:25;6.10;;;3.03;;
61806;SDS011;47726;52.766;6.606;2022-08-27T00:16:52;7.07;;;2.80;;
61806;SDS011;47726;52.766;6.606;2022-08-27T00:19:17;9.80;;;3.22;;
61806;SDS011;47726;52.766;6.606;2022-08-27T00:21:43;6.35;;;2.90;;
61806;SDS011;47726;52.766;6.606;2022-08-27T00:24:09;7.07;;;2.90;;
61806;SDS011;47726;52.766;6.606;2022-08-27T00:26:36;7.85;;;2.88;;
61806;SDS011;47726;52.766;6.606;2022-08-27T00:29:02;8.00;;;3.15;;
61806;SDS011;47726;52.766;6.606;2022-08-27T00:31:27;5.05;;;2.65;;
61806;SDS011;47726;52.766;6.606;2022-08-27T00:33:53;6.82;;;3.10;;
61806;SDS011;47726;52.766;6.606;2022-08-27T00:36:19;7.10;;;3.00;;
61806;SDS011;47726;52.766;6.606;2022-08-27T00:38:45;7.28;;;3.10;;
61806;SDS011;47726;52.766;6.606;2022-08-27T00:41:11;8.50;;;2.90;;
61806;SDS011;47726;52.766;6.606;2022-08-27T00:43:48;8.77;;;2.88;;
61806;SDS011;47726;52.766;6.606;2022-08-27T00:46:19;6.57;;;2.88;;
61806;SDS011;47726;52.766;6.606;2022-08-27T00:49:15;8.40;;;2.97;;
61806;SDS011;47726;52.766;6.606;2022-08-27T00:51:41;8.63;;;3.13;;
61806;SDS011;47726;52.766;6.606;2022-08-27T00:54:07;5.88;;;3.00;;
61806;SDS011;47726;52.766;6.606;2022-08-27T00:56:39;7.60;;;3.10;;
61806;SDS011;47726;52.766;6.606;2022-08-27T00:59:13;4.20;;;2.40;;
61806;SDS011;47726;52.766;6.606;2022-08-27T01:01:41;8.68;;;3.25;;
61806;SDS011;47726;52.766;6.606;2022-08-27T01:04:26;6.18;;;2.72;;
61806;SDS011;47726;52.766;6.606;2022-08-27T01:06:53;7.50;;;2.85;;
61806;SDS011;47726;52.766;6.606;2022-08-27T01:09:19;5.60;;;2.70;;
61806;SDS011;47726;52.766;6.606;2022-08-27T01:11:45;6.60;;;2.72;;
61806;SDS011;47726;52.766;6.606;2022-08-27T01:14:12;8.95;;;3.20;;
61806;SDS011;47726;52.766;6.606;2022-08-27T01:16:40;7.13;;;2.85;;
61806;SDS011;47726;52.766;6.606;2022-08-27T01:25:00;8.50;;;2.90;;
61806;SDS011;47726;52.766;6.606;2022-08-27T01:27:30;8.13;;;2.85;;
61806;SDS011;47726;52.766;6.606;2022-08-27T01:29:56;8.40;;;3.00;;
61806;SDS011;47726;52.766;6.606;2022-08-27T01:32:25;7.88;;;2.83;;
61806;SDS011;47726;52.766;6.606;2022-08-27T01:34:53;6.53;;;2.80;;
61806;SDS011;47726;52.766;6.606;2022-08-27T01:37:19;8.23;;;3.17;;
61806;SDS011;47726;52.766;6.606;2022-08-27T01:39:46;8.70;;;2.80;;
61806;SDS011;47726;52.766;6.606;2022-08-27T01:42:16;7.32;;;3.50;;
61806;SDS011;47726;52.766;6.606;2022-08-27T01:44:48;8.45;;;3.20;;
61806;SDS011;47726;52.766;6.606;2022-08-27T01:47:21;7.22;;;2.90;;
61806;SDS011;47726;52.766;6.606;2022-08-27T01:49:48;7.97;;;3.20;;
61806;SDS011;47726;52.766;6.606;2022-08-27T01:52:15;7.10;;;3.00;;
61806;SDS011;47726;52.766;6.606;2022-08-27T01:54:43;8.32;;;3.33;;
61806;SDS011;47726;52.766;6.606;2022-08-27T01:57:09;6.55;;;3.00;;
61806;SDS011;47726;52.766;6.606;2022-08-27T01:59:35;7.53;;;3.17;;
61806;SDS011;47726;52.766;6.606;2022-08-27T02:02:01;8.05;;;3.08;;
61806;SDS011;47726;52.766;6.606;2022-08-27T02:04:27;7.63;;;3.10;;
61806;SDS011;47726;52.766;6.606;2022-08-27T02:06:53;7.00;;;2.90;;
61806;SDS011;47726;52.766;6.606;2022-08-27T02:09:19;7.63;;;2.97;;
61806;SDS011;47726;52.766;6.606;2022-08-27T02:11:44;4.90;;;2.80;;
61806;SDS011;47726;52.766;6.606;2022-08-27T02:14:10;6.28;;;2.90;;
61806;SDS011;47726;52.766;6.606;2022-08-27T02:16:36;8.93;;;3.22;;
61806;SDS011;47726;52.766;6.606;2022-08-27T02:19:02;5.55;;;2.63;;
61806;SDS011;47726;52.766;6.606;2022-08-27T02:21:28;7.45;;;2.90;;
61806;SDS011;47726;52.766;6.606;2022-08-27T02:23:53;6.90;;;2.67;;
61806;SDS011;47726;52.766;6.606;2022-08-27T02:26:19;8.25;;;3.00;;
61806;SDS011;47726;52.766;6.606;2022-08-27T02:28:45;8.20;;;2.80;;
61806;SDS011;47726;52.766;6.606;2022-08-27T02:31:11;7.55;;;2.95;;
61806;SDS011;47726;52.766;6.606;2022-08-27T02:33:37;7.38;;;2.70;;
61806;SDS011;47726;52.766;6.606;2022-08-27T02:36:02;7.55;;;2.90;;
61806;SDS011;47726;52.766;6.606;2022-08-27T02:38:28;8.23;;;3.05;;
61806;SDS011;47726;52.766;6.606;2022-08-27T02:40:54;4.93;;;2.85;;
61806;SDS011;47726;52.766;6.606;2022-08-27T02:43:19;6.65;;;2.78;;
61806;SDS011;47726;52.766;6.606;2022-08-27T02:45:45;6.43;;;2.80;;
61806;SDS011;47726;52.766;6.606;2022-08-27T02:48:12;7.45;;;2.95;;
61806;SDS011;47726;52.766;6.606;2022-08-27T02:50:37;6.65;;;3.15;;
61806;SDS011;47726;52.766;6.606;2022-08-27T02:53:03;7.30;;;2.80;;
61806;SDS011;47726;52.766;6.606;2022-08-27T02:55:30;5.63;;;2.90;;
61806;SDS011;47726;52.766;6.606;2022-08-27T02:57:57;7.53;;;2.97;;
61806;SDS011;47726;52.766;6.606;2022-08-27T03:00:23;6.88;;;3.17;;
61806;SDS011;47726;52.766;6.606;2022-08-27T03:02:50;5.65;;;2.75;;
61806;SDS011;47726;52.766;6.606;2022-08-27T03:05:16;8.23;;;2.97;;
61806;SDS011;47726;52.766;6.606;2022-08-27T03:07:42;5.68;;;2.95;;
61806;SDS011;47726;52.766;6.606;2022-08-27T03:10:09;8.82;;;2.80;;
61806;SDS011;47726;52.766;6.606;2022-08-27T03:12:37;8.88;;;3.17;;
61806;SDS011;47726;52.766;6.606;2022-08-27T03:15:04;4.70;;;2.63;;
61806;SDS011;47726;52.766;6.606;2022-08-27T03:17:32;7.00;;;2.90;;
61806;SDS011;47726;52.766;6.606;2022-08-27T03:20:16;7.65;;;3.20;;
61806;SDS011;47726;52.766;6.606;2022-08-27T03:22:43;6.90;;;3.13;;
61806;SDS011;47726;52.766;6.606;2022-08-27T03:25:09;8.73;;;2.92;;
61806;SDS011;47726;52.766;6.606;2022-08-27T03:27:35;6.93;;;3.08;;
61806;SDS011;47726;52.766;6.606;2022-08-27T03:30:02;6.60;;;3.20;;
61806;SDS011;47726;52.766;6.606;2022-08-27T03:32:29;6.22;;;3.28;;
61806;SDS011;47726;52.766;6.606;2022-08-27T03:34:56;8.55;;;3.10;;
61806;SDS011;47726;52.766;6.606;2022-08-27T03:37:22;5.97;;;2.90;;
61806;SDS011;47726;52.766;6.606;2022-08-27T03:39:48;8.57;;;3.20;;
61806;SDS011;47726;52.766;6.606;2022-08-27T03:42:14;6.57;;;2.90;;
61806;SDS011;47726;52.766;6.606;2022-08-27T03:44:39;5.97;;;3.20;;
61806;SDS011;47726;52.766;6.606;2022-08-27T03:47:05;7.88;;;2.95;;
61806;SDS011;47726;52.766;6.606;2022-08-27T03:49:31;6.88;;;3.38;;
61806;SDS011;47726;52.766;6.606;2022-08-27T03:51:56;6.80;;;3.00;;
61806;SDS011;47726;52.766;6.606;2022-08-27T03:54:23;6.70;;;3.40;;
61806;SDS011;47726;52.766;6.606;2022-08-27T03:56:49;7.43;;;3.00;;
61806;SDS011;47726;52.766;6.606;2022-08-27T03:59:15;7.03;;;3.30;;
61806;SDS011;47726;52.766;6.606;2022-08-27T04:01:41;7.20;;;3.25;;
61806;SDS011;47726;52.766;6.606;2022-08-27T04:04:08;7.10;;;3.17;;
61806;SDS011;47726;52.766;6.606;2022-08-27T04:06:34;6.22;;;3.28;;
61806;SDS011;47726;52.766;6.606;2022-08-27T04:09:00;8.68;;;3.00;;
61806;SDS011;47726;52.766;6.606;2022-08-27T04:11:26;5.78;;;3.08;;
61806;SDS011;47726;52.766;6.606;2022-08-27T04:13:53;7.72;;;3.25;;
61806;SDS011;47726;52.766;6.606;2022-08-27T04:16:19;8.75;;;2.90;;
61806;SDS011;47726;52.766;6.606;2022-08-27T04:18:45;5.85;;;3.10;;
61806;SDS011;47726;52.766;6.606;2022-08-27T04:21:12;7.03;;;3.10;;
61806;SDS011;47726;52.766;6.606;2022-08-27T04:23:39;8.85;;;3.40;;
61806;SDS011;47726;52.766;6.606;2022-08-27T04:26:06;8.38;;;3.30;;
61806;SDS011;47726;52.766;6.606;2022-08-27T04:28:34;6.70;;;3.00;;
61806;SDS011;47726;52.766;6.606;2022-08-27T04:31:00;5.78;;;3.17;;
61806;SDS011;47726;52.766;6.606;2022-08-27T04:33:27;6.45;;;3.30;;
61806;SDS011;47726;52.766;6.606;2022-08-27T04:35:57;6.88;;;3.17;;
61806;SDS011;47726;52.766;6.606;2022-08-27T04:38:23;6.30;;;3.00;;
61806;SDS011;47726;52.766;6.606;2022-08-27T04:40:49;6.07;;;3.10;;
61806;SDS011;47726;52.766;6.606;2022-08-27T04:43:33;6.38;;;3.22;;
61806;SDS011;47726;52.766;6.606;2022-08-27T04:45:59;7.43;;;3.28;;
61806;SDS011;47726;52.766;6.606;2022-08-27T04:48:24;6.93;;;3.20;;
61806;SDS011;47726;52.766;6.606;2022-08-27T04:50:50;6.95;;;3.20;;
61806;SDS011;47726;52.766;6.606;2022-08-27T04:53:16;7.60;;;3.15;;
61806;SDS011;47726;52.766;6.606;2022-08-27T04:55:46;5.78;;;3.13;;
61806;SDS011;47726;52.766;6.606;2022-08-27T04:58:14;6.95;;;3.13;;
61806;SDS011;47726;52.766;6.606;2022-08-27T05:00:45;7.45;;;3.50;;
61806;SDS011;47726;52.766;6.606;2022-08-27T05:03:15;8.35;;;3.17;;
61806;SDS011;47726;52.766;6.606;2022-08-27T05:05:43;7.78;;;3.10;;
61806;SDS011;47726;52.766;6.606;2022-08-27T05:08:09;6.85;;;2.92;;
61806;SDS011;47726;52.766;6.606;2022-08-27T05:10:39;6.75;;;2.90;;
61806;SDS011;47726;52.766;6.606;2022-08-27T05:13:09;5.88;;;2.70;;
61806;SDS011;47726;52.766;6.606;2022-08-27T05:15:36;7.97;;;3.10;;
61806;SDS011;47726;52.766;6.606;2022-08-27T05:18:03;6.18;;;3.08;;
61806;SDS011;47726;52.766;6.606;2022-08-27T05:20:31;7.38;;;2.90;;
61806;SDS011;47726;52.766;6.606;2022-08-27T05:22:58;9.80;;;2.83;;
61806;SDS011;47726;52.766;6.606;2022-08-27T05:25:24;5.05;;;2.75;;
61806;SDS011;47726;52.766;6.606;2022-08-27T05:27:51;7.10;;;2.75;;
61806;SDS011;47726;52.766;6.606;2022-08-27T05:30:16;6.97;;;3.00;;
61806;SDS011;47726;52.766;6.606;2022-08-27T05:32:42;6.05;;;2.88;;
61806;SDS011;47726;52.766;6.606;2022-08-27T05:35:08;8.50;;;2.85;;
61806;SDS011;47726;52.766;6.606;2022-08-27T05:37:35;5.60;;;2.50;;
61806;SDS011;47726;52.766;6.606;2022-08-27T05:40:02;6.70;;;2.42;;
61806;SDS011;47726;52.766;6.606;2022-08-27T05:42:29;6.53;;;2.50;;
61806;SDS011;47726;52.766;6.606;2022-08-27T05:44:55;6.20;;;2.50;;
61806;SDS011;47726;52.766;6.606;2022-08-27T05:47:21;6.28;;;2.35;;
61806;SDS011;47726;52.766;6.606;2022-08-27T05:49:50;5.93;;;2.40;;
61806;SDS011;47726;52.766;6.606;2022-08-27T05:52:16;6.32;;;2.42;;
61806;SDS011;47726;52.766;6.606;2022-08-27T05:54:42;6.15;;;2.20;;
61806;SDS011;47726;52.766;6.606;2022-08-27T05:57:07;3.95;;;2.10;;
61806;SDS011;47726;52.766;6.606;2022-08-27T05:59:33;6.65;;;2.33;;
61806;SDS011;47726;52.766;6.606;2022-08-27T06:02:18;6.35;;;2.33;;
61806;SDS011;47726;52.766;6.606;2022-08-27T06:04:44;4.30;;;2.05;;
61806;SDS011;47726;52.766;6.606;2022-08-27T06:07:10;3.67;;;2.20;;
61806;SDS011;47726;52.766;6.606;2022-08-27T06:09:36;5.65;;;2.20;;
61806;SDS011;47726;52.766;6.606;2022-08-27T06:12:03;6.15;;;2.35;;
61806;SDS011;47726;52.766;6.606;2022-08-27T06:14:29;7.43;;;2.40;;
61806;SDS011;47726;52.766;6.606;2022-08-27T06:16:55;5.72;;;2.33;;
61806;SDS011;47726;52.766;6.606;2022-08-27T06:19:23;6.13;;;2.13;;
61806;SDS011;47726;52.766;6.606;2022-08-27T06:21:49;6.85;;;2.03;;
61806;SDS011;47726;52.766;6.606;2022-08-27T06:24:15;6.13;;;2.20;;
61806;SDS011;47726;52.766;6.606;2022-08-27T06:26:41;4.60;;;2.25;;
61806;SDS011;47726;52.766;6.606;2022-08-27T06:29:08;5.57;;;1.90;;
61806;SDS011;47726;52.766;6.606;2022-08-27T06:31:36;6.50;;;2.20;;
61806;SDS011;47726;52.766;6.606;2022-08-27T06:34:02;6.95;;;2.45;;
61806;SDS011;47726;52.766;6.606;2022-08-27T06:36:30;5.78;;;2.00;;
61806;SDS011;47726;52.766;6.606;2022-08-27T06:38:57;5.57;;;2.10;;
61806;SDS011;47726;52.766;6.606;2022-08-27T06:41:24;7.35;;;2.28;;
61806;SDS011;47726;52.766;6.606;2022-08-27T06:43:51;5.72;;;2.25;;
61806;SDS011;47726;52.766;6.606;2022-08-27T06:46:18;6.90;;;2.03;;
61806;SDS011;47726;52.766;6.606;2022-08-27T06:48:46;4.40;;;2.17;;
61806;SDS011;47726;52.766;6.606;2022-08-27T06:51:17;4.18;;;1.90;;
61806;SDS011;47726;52.766;6.606;2022-08-27T06:53:45;6.30;;;2.22;;
61806;SDS011;47726;52.766;6.606;2022-08-27T06:56:12;6.32;;;2.40;;
61806;SDS011;47726;52.766;6.606;2022-08-27T06:58:39;6.45;;;2.00;;
61806;SDS011;47726;52.766;6.606;2022-08-27T07:01:12;5.57;;;2.20;;
61806;SDS011;47726;52.766;6.606;2022-08-27T07:03:40;5.93;;;2.00;;
61806;SDS011;47726;52.766;6.606;2022-08-27T07:06:07;6.45;;;2.00;;
61806;SDS011;47726;52.766;6.606;2022-08-27T07:08:34;5.95;;;1.98;;
61806;SDS011;47726;52.766;6.606;2022-08-27T07:10:59;4.72;;;1.98;;
61806;SDS011;47726;52.766;6.606;2022-08-27T07:13:25;5.00;;;2.20;;
61806;SDS011;47726;52.766;6.606;2022-08-27T07:15:52;5.85;;;1.98;;
61806;SDS011;47726;52.766;6.606;2022-08-27T07:18:17;7.72;;;2.40;;
61806;SDS011;47726;52.766;6.606;2022-08-27T07:20:43;5.72;;;2.25;;
61806;SDS011;47726;52.766;6.606;2022-08-27T07:23:08;6.30;;;2.00;;
61806;SDS011;47726;52.766;6.606;2022-08-27T07:25:35;5.90;;;2.17;;
61806;SDS011;47726;52.766;6.606;2022-08-27T07:28:01;4.15;;;1.80;;
61806;SDS011;47726;52.766;6.606;2022-08-27T07:30:26;6.07;;;2.10;;
61806;SDS011;47726;52.766;6.606;2022-08-27T07:32:52;3.50;;;1.95;;
61806;SDS011;47726;52.766;6.606;2022-08-27T07:35:18;5.63;;;2.13;;
61806;SDS011;47726;52.766;6.606;2022-08-27T07:37:44;7.40;;;2.10;;
61806;SDS011;47726;52.766;6.606;2022-08-27T07:40:11;5.20;;;1.90;;
61806;SDS011;47726;52.766;6.606;2022-08-27T07:42:39;6.28;;;2.25;;
61806;SDS011;47726;52.766;6.606;2022-08-27T07:45:24;5.05;;;1.85;;
61806;SDS011;47726;52.766;6.606;2022-08-27T07:47:50;6.60;;;2.00;;
61806;SDS011;47726;52.766;6.606;2022-08-27T07:50:16;4.45;;;1.85;;
61806;SDS011;47726;52.766;6.606;2022-08-27T07:52:42;5.75;;;1.80;;
61806;SDS011;47726;52.766;6.606;2022-08-27T07:55:08;5.88;;;1.95;;
61806;SDS011;47726;52.766;6.606;2022-08-27T07:57:35;6.22;;;2.00;;
61806;SDS011;47726;52.766;6.606;2022-08-27T08:00:01;5.63;;;1.90;;
61806;SDS011;47726;52.766;6.606;2022-08-27T08:02:28;4.72;;;1.75;;
61806;SDS011;47726;52.766;6.606;2022-08-27T08:04:54;7.32;;;1.80;;
61806;SDS011;47726;52.766;6.606;2022-08-27T08:07:20;6.78;;;2.08;;
61806;SDS011;47726;52.766;6.606;2022-08-27T08:09:46;6.57;;;2.05;;
61806;SDS011;47726;52.766;6.606;2022-08-27T08:12:12;9.25;;;2.15;;
61806;SDS011;47726;52.766;6.606;2022-08-27T08:14:38;4.78;;;1.63;;
61806;SDS011;47726;52.766;6.606;2022-08-27T08:17:04;7.78;;;1.90;;
61806;SDS011;47726;52.766;6.606;2022-08-27T08:19:29;6.30;;;1.85;;
61806;SDS011;47726;52.766;6.606;2022-08-27T08:21:56;5.68;;;1.73;;
61806;SDS011;47726;52.766;6.606;2022-08-27T08:24:22;5.53;;;1.90;;
61806;SDS011;47726;52.766;6.606;2022-08-27T08:26:47;6.10;;;1.70;;
61806;SDS011;47726;52.766;6.606;2022-08-27T08:29:13;7.20;;;1.85;;
61806;SDS011;47726;52.766;6.606;2022-08-27T08:31:39;5.75;;;2.03;;
61806;SDS011;47726;52.766;6.606;2022-08-27T08:34:05;8.57;;;2.10;;
61806;SDS011;47726;52.766;6.606;2022-08-27T08:36:31;8.00;;;1.90;;
61806;SDS011;47726;52.766;6.606;2022-08-27T08:38:57;5.68;;;1.75;;
61806;SDS011;47726;52.766;6.606;2022-08-27T08:43:51;4.78;;;1.70;;
61806;SDS011;47726;52.766;6.606;2022-08-27T08:46:20;5.38;;;1.70;;
61806;SDS011;47726;52.766;6.606;2022-08-27T08:49:04;6.60;;;1.60;;
61806;SDS011;47726;52.766;6.606;2022-08-27T08:51:41;5.45;;;1.90;;
61806;SDS011;47726;52.766;6.606;2022-08-27T08:54:15;6.72;;;1.70;;
61806;SDS011;47726;52.766;6.606;2022-08-27T08:57:04;4.50;;;1.73;;
61806;SDS011;47726;52.766;6.606;2022-08-27T08:59:39;6.05;;;1.67;;
61806;SDS011;47726;52.766;6.606;2022-08-27T09:02:11;5.13;;;1.80;;
61806;SDS011;47726;52.766;6.606;2022-08-27T09:04:38;4.47;;;1.50;;
61806;SDS011;47726;52.766;6.606;2022-08-27T09:12:36;5.30;;;1.50;;
61806;SDS011;47726;52.766;6.606;2022-08-27T09:15:13;6.20;;;1.95;;
61806;SDS011;47726;52.766;6.606;2022-08-27T09:17:42;5.90;;;1.85;;
61806;SDS011;47726;52.766;6.606;2022-08-27T09:20:09;5.47;;;1.80;;
61806;SDS011;47726;52.766;6.606;2022-08-27T09:25:18;4.30;;;1.60;;
61806;SDS011;47726;52.766;6.606;2022-08-27T09:27:47;5.45;;;1.90;;
61806;SDS011;47726;52.766;6.606;2022-08-27T09:30:22;4.20;;;1.73;;
61806;SDS011;47726;52.766;6.606;2022-08-27T09:33:09;4.75;;;1.63;;
61806;SDS011;47726;52.766;6.606;2022-08-27T09:35:39;4.75;;;1.58;;
61806;SDS011;47726;52.766;6.606;2022-08-27T09:38:06;6.43;;;1.90;;
61806;SDS011;47726;52.766;6.606;2022-08-27T09:40:37;9.02;;;1.90;;
61806;SDS011;47726;52.766;6.606;2022-08-27T09:43:21;5.68;;;1.77;;
61806;SDS011;47726;52.766;6.606;2022-08-27T09:45:53;6.68;;;1.60;;
61806;SDS011;47726;52.766;6.606;2022-08-27T09:48:29;5.70;;;1.65;;
61806;SDS011;47726;52.766;6.606;2022-08-27T09:50:57;6.28;;;1.70;;
61806;SDS011;47726;52.766;6.606;2022-08-27T09:53:29;7.20;;;1.75;;
61806;SDS011;47726;52.766;6.606;2022-08-27T09:56:20;4.53;;;1.75;;
61806;SDS011;47726;52.766;6.606;2022-08-27T09:58:52;5.97;;;1.65;;
61806;SDS011;47726;52.766;6.606;2022-08-27T10:01:25;7.68;;;2.00;;
61806;SDS011;47726;52.766;6.606;2022-08-27T10:04:02;7.05;;;1.90;;
61806;SDS011;47726;52.766;6.606;2022-08-27T10:06:36;6.25;;;1.90;;
61806;SDS011;47726;52.766;6.606;2022-08-27T10:11:58;5.22;;;1.70;;
61806;SDS011;47726;52.766;6.606;2022-08-27T10:14:33;6.43;;;1.70;;
61806;SDS011;47726;52.766;6.606;2022-08-27T10:19:51;6.75;;;1.75;;
61806;SDS011;47726;52.766;6.606;2022-08-27T10:27:56;5.22;;;1.70;;
61806;SDS011;47726;52.766;6.606;2022-08-27T10:33:42;6.20;;;1.73;;
61806;SDS011;47726;52.766;6.606;2022-08-27T10:41:52;5.68;;;1.50;;
61806;SDS011;47726;52.766;6.606;2022-08-27T10:47:38;5.25;;;1.60;;
61806;SDS011;47726;52.766;6.606;2022-08-27T10:50:20;6.00;;;1.52;;
61806;SDS011;47726;52.766;6.606;2022-08-27T10:53:16;4.70;;;1.48;;
61806;SDS011;47726;52.766;6.606;2022-08-27T10:56:09;6.75;;;1.70;;
61806;SDS011;47726;52.766;6.606;2022-08-27T10:58:52;8.60;;;2.00;;
61806;SDS011;47726;52.766;6.606;2022-08-27T11:04:00;8.68;;;1.70;;
61806;SDS011;47726;52.766;6.606;2022-08-27T11:06:41;4.45;;;1.77;;
61806;SDS011;47726;52.766;6.606;2022-08-27T11:11:42;6.90;;;1.65;;
61806;SDS011;47726;52.766;6.606;2022-08-27T11:14:15;7.13;;;1.90;;
61806;SDS011;47726;52.766;6.606;2022-08-27T11:16:53;4.95;;;1.55;;
61806;SDS011;47726;52.766;6.606;2022-08-27T11:22:12;5.95;;;1.60;;
61806;SDS011;47726;52.766;6.606;2022-08-27T11:27:49;4.50;;;1.50;;
61806;SDS011;47726;52.766;6.606;2022-08-27T11:31:04;6.43;;;1.60;;
61806;SDS011;47726;52.766;6.606;2022-08-27T11:33:08;7.03;;;1.70;;
61806;SDS011;47726;52.766;6.606;2022-08-27T11:41:18;6.40;;;1.52;;
61806;SDS011;47726;52.766;6.606;2022-08-27T11:44:08;4.60;;;1.50;;
61806;SDS011;47726;52.766;6.606;2022-08-27T11:46:43;5.78;;;1.77;;
61806;SDS011;47726;52.766;6.606;2022-08-27T11:52:06;5.13;;;1.60;;
61806;SDS011;47726;52.766;6.606;2022-08-27T11:57:25;6.80;;;1.98;;
61806;SDS011;47726;52.766;6.606;2022-08-27T11:59:53;6.35;;;1.75;;
61806;SDS011;47726;52.766;6.606;2022-08-27T12:02:26;5.90;;;1.77;;
61806;SDS011;47726;52.766;6.606;2022-08-27T12:04:54;4.57;;;1.52;;
61806;SDS011;47726;52.766;6.606;2022-08-27T12:07:44;5.95;;;1.80;;
61806;SDS011;47726;52.766;6.606;2022-08-27T12:12:54;7.30;;;1.58;;
61806;SDS011;47726;52.766;6.606;2022-08-27T12:15:45;7.63;;;1.75;;
61806;SDS011;47726;52.766;6.606;2022-08-27T12:26:56;5.15;;;1.58;;
61806;SDS011;47726;52.766;6.606;2022-08-27T12:29:50;7.95;;;1.65;;
61806;SDS011;47726;52.766;6.606;2022-08-27T12:37:50;5.25;;;1.60;;
61806;SDS011;47726;52.766;6.606;2022-08-27T12:42:47;4.95;;;1.50;;
61806;SDS011;47726;52.766;6.606;2022-08-27T12:45:17;3.55;;;1.58;;
61806;SDS011;47726;52.766;6.606;2022-08-27T12:47:48;7.28;;;1.80;;
61806;SDS011;47726;52.766;6.606;2022-08-27T12:50:18;5.00;;;1.50;;
61806;SDS011;47726;52.766;6.606;2022-08-27T12:53:00;5.75;;;1.65;;
61806;SDS011;47726;52.766;6.606;2022-08-27T13:03:51;4.88;;;1.38;;
61806;SDS011;47726;52.766;6.606;2022-08-27T13:06:26;4.47;;;1.42;;
61806;SDS011;47726;52.766;6.606;2022-08-27T13:08:54;5.00;;;1.55;;
61806;SDS011;47726;52.766;6.606;2022-08-27T13:11:24;5.72;;;1.42;;
61806;SDS011;47726;52.766;6.606;2022-08-27T13:14:02;4.88;;;1.35;;
61806;SDS011;47726;52.766;6.606;2022-08-27T13:16:50;7.50;;;1.60;;
61806;SDS011;47726;52.766;6.606;2022-08-27T13:21:54;3.67;;;1.40;;
61806;SDS011;47726;52.766;6.606;2022-08-27T13:24:31;4.47;;;1.50;;
61806;SDS011;47726;52.766;6.606;2022-08-27T13:27:00;4.55;;;1.45;;
61806;SDS011;47726;52.766;6.606;2022-08-27T13:29:28;6.47;;;1.50;;
61806;SDS011;47726;52.766;6.606;2022-08-27T13:31:54;5.25;;;1.50;;
61806;SDS011;47726;52.766;6.606;2022-08-27T13:34:21;6.55;;;1.58;;
61806;SDS011;47726;52.766;6.606;2022-08-27T13:39:24;4.13;;;1.30;;
61806;SDS011;47726;52.766;6.606;2022-08-27T13:41:51;6.85;;;1.50;;
61806;SDS011;47726;52.766;6.606;2022-08-27T13:44:18;9.27;;;1.65;;
61806;SDS011;47726;52.766;6.606;2022-08-27T13:47:06;5.28;;;1.40;;
61806;SDS011;47726;52.766;6.606;2022-08-27T13:49:38;6.13;;;1.63;;
61806;SDS011;47726;52.766;6.606;2022-08-27T13:54:41;6.22;;;1.67;;
61806;SDS011;47726;52.766;6.606;2022-08-27T13:57:10;5.10;;;1.20;;
61806;SDS011;47726;52.766;6.606;2022-08-27T13:59:38;6.60;;;1.75;;
61806;SDS011;47726;52.766;6.606;2022-08-27T14:04:37;5.22;;;1.50;;
61806;SDS011;47726;52.766;6.606;2022-08-27T14:09:40;5.18;;;1.40;;
61806;SDS011;47726;52.766;6.606;2022-08-27T14:12:08;5.00;;;1.50;;
61806;SDS011;47726;52.766;6.606;2022-08-27T14:14:35;4.43;;;1.20;;
61806;SDS011;47726;52.766;6.606;2022-08-27T14:17:02;5.00;;;1.52;;
61806;SDS011;47726;52.766;6.606;2022-08-27T14:19:32;5.18;;;1.40;;
61806;SDS011;47726;52.766;6.606;2022-08-27T14:21:58;5.15;;;1.30;;
61806;SDS011;47726;52.766;6.606;2022-08-27T14:24:25;6.05;;;1.50;;
61806;SDS011;47726;52.766;6.606;2022-08-27T14:26:53;6.72;;;1.58;;
61806;SDS011;47726;52.766;6.606;2022-08-27T14:29:26;4.97;;;1.25;;
61806;SDS011;47726;52.766;6.606;2022-08-27T14:31:51;5.30;;;1.35;;
61806;SDS011;47726;52.766;6.606;2022-08-27T14:34:17;4.95;;;1.20;;
61806;SDS011;47726;52.766;6.606;2022-08-27T14:36:42;5.60;;;1.23;;
61806;SDS011;47726;52.766;6.606;2022-08-27T14:39:08;4.03;;;1.20;;
61806;SDS011;47726;52.766;6.606;2022-08-27T14:41:35;4.35;;;1.15;;
61806;SDS011;47726;52.766;6.606;2022-08-27T14:44:00;4.72;;;1.27;;
61806;SDS011;47726;52.766;6.606;2022-08-27T14:46:27;5.30;;;1.27;;
61806;SDS011;47726;52.766;6.606;2022-08-27T14:48:54;5.15;;;1.40;;
61806;SDS011;47726;52.766;6.606;2022-08-27T14:51:23;6.68;;;1.70;;
61806;SDS011;47726;52.766;6.606;2022-08-27T14:53:51;5.60;;;1.60;;
61806;SDS011;47726;52.766;6.606;2022-08-27T14:56:17;6.10;;;1.40;;
61806;SDS011;47726;52.766;6.606;2022-08-27T14:58:44;5.65;;;1.38;;
61806;SDS011;47726;52.766;6.606;2022-08-27T15:01:09;5.63;;;1.38;;
61806;SDS011;47726;52.766;6.606;2022-08-27T15:03:37;3.95;;;1.20;;
61806;SDS011;47726;52.766;6.606;2022-08-27T15:06:07;4.72;;;1.33;;
61806;SDS011;47726;52.766;6.606;2022-08-27T15:08:32;4.22;;;1.33;;
61806;SDS011;47726;52.766;6.606;2022-08-27T15:10:58;4.18;;;1.23;;
61806;SDS011;47726;52.766;6.606;2022-08-27T15:13:24;4.78;;;1.30;;
61806;SDS011;47726;52.766;6.606;2022-08-27T15:15:50;4.95;;;1.38;;
61806;SDS011;47726;52.766;6.606;2022-08-27T15:18:15;3.83;;;1.42;;
61806;SDS011;47726;52.766;6.606;2022-08-27T15:20:41;4.45;;;1.40;;
61806;SDS011;47726;52.766;6.606;2022-08-27T15:23:08;5.70;;;1.60;;
61806;SDS011;47726;52.766;6.606;2022-08-27T15:25:36;5.70;;;1.42;;
61806;SDS011;47726;52.766;6.606;2022-08-27T15:28:02;6.20;;;1.40;;
61806;SDS011;47726;52.766;6.606;2022-08-27T15:30:29;5.63;;;1.55;;
61806;SDS011;47726;52.766;6.606;2022-08-27T15:32:54;6.40;;;1.40;;
61806;SDS011;47726;52.766;6.606;2022-08-27T15:35:22;3.75;;;1.40;;
61806;SDS011;47726;52.766;6.606;2022-08-27T15:37:53;4.85;;;1.40;;
61806;SDS011;47726;52.766;6.606;2022-08-27T15:40:20;4.55;;;1.38;;
61806;SDS011;47726;52.766;6.606;2022-08-27T15:42:49;5.35;;;1.20;;
61806;SDS011;47726;52.766;6.606;2022-08-27T15:45:20;5.72;;;1.30;;
61806;SDS011;47726;52.766;6.606;2022-08-27T15:47:46;5.85;;;1.60;;
61806;SDS011;47726;52.766;6.606;2022-08-27T15:50:11;4.57;;;1.20;;
61806;SDS011;47726;52.766;6.606;2022-08-27T15:52:37;6.90;;;1.33;;
61806;SDS011;47726;52.766;6.606;2022-08-27T15:55:03;5.88;;;1.40;;
61806;SDS011;47726;52.766;6.606;2022-08-27T15:57:29;5.13;;;1.40;;
61806;SDS011;47726;52.766;6.606;2022-08-27T15:59:55;3.25;;;1.40;;
61806;SDS011;47726;52.766;6.606;2022-08-27T16:02:21;4.28;;;1.50;;
61806;SDS011;47726;52.766;6.606;2022-08-27T16:04:48;6.18;;;1.60;;
61806;SDS011;47726;52.766;6.606;2022-08-27T16:07:15;5.32;;;1.50;;
61806;SDS011;47726;52.766;6.606;2022-08-27T16:09:41;3.53;;;1.30;;
61806;SDS011;47726;52.766;6.606;2022-08-27T16:12:07;5.57;;;1.80;;
61806;SDS011;47726;52.766;6.606;2022-08-27T16:14:33;6.93;;;1.63;;
61806;SDS011;47726;52.766;6.606;2022-08-27T16:16:59;3.72;;;1.60;;
61806;SDS011;47726;52.766;6.606;2022-08-27T16:19:25;5.47;;;1.70;;
61806;SDS011;47726;52.766;6.606;2022-08-27T16:21:50;6.65;;;1.70;;
61806;SDS011;47726;52.766;6.606;2022-08-27T16:24:17;4.55;;;1.65;;
61806;SDS011;47726;52.766;6.606;2022-08-27T16:26:45;6.85;;;1.63;;
61806;SDS011;47726;52.766;6.606;2022-08-27T16:29:12;7.78;;;1.80;;
61806;SDS011;47726;52.766;6.606;2022-08-27T16:31:38;5.50;;;1.55;;
61806;SDS011;47726;52.766;6.606;2022-08-27T16:34:04;4.40;;;1.60;;
61806;SDS011;47726;52.766;6.606;2022-08-27T16:36:38;7.18;;;1.80;;
61806;SDS011;47726;52.766;6.606;2022-08-27T16:39:04;3.92;;;1.50;;
61806;SDS011;47726;52.766;6.606;2022-08-27T16:41:30;4.55;;;1.63;;